createdAt,value
2022-08-12T00:00:43.221Z,9.745364
2022-08-12T00:02:03.172Z,9.745364
2022-08-12T00:02:44.243Z,9.745364
2022-08-12T00:03:44.193Z,9.745364
2022-08-12T00:04:43.184Z,9.745364
2022-08-12T00:06:01.735Z,9.745364
2022-08-12T00:06:44.164Z,9.745364
2022-08-12T00:07:43.186Z,9.745364
2022-08-12T00:08:43.152Z,9.745364
2022-08-12T00:09:43.144Z,9.745364
2022-08-12T00:10:43.139Z,9.745364
2022-08-12T00:11:43.138Z,9.745364
2022-08-12T00:12:43.152Z,9.746032
2022-08-12T00:13:43.117Z,9.745446
2022-08-12T00:14:43.109Z,9.745532
2022-08-12T00:15:43.102Z,9.745411
2022-08-12T00:16:43.095Z,9.745777
2022-08-12T00:17:43.117Z,9.745432
2022-08-12T00:18:43.079Z,9.745606
2022-08-12T00:19:43.069Z,9.745562
2022-08-12T00:20:43.060Z,9.745699
2022-08-12T00:21:43.057Z,9.745827
2022-08-12T00:22:43.074Z,9.745544
2022-08-12T00:23:43.043Z,9.745479
2022-08-12T00:24:43.028Z,9.745729
2022-08-12T00:25:43.027Z,9.745609
2022-08-12T00:26:44.020Z,9.745686
2022-08-12T00:27:43.672Z,9.745755
2022-08-12T00:28:43.003Z,9.745517
2022-08-12T00:29:47.322Z,9.745154
2022-08-12T00:30:44.985Z,9.745359
2022-08-12T00:31:42.979Z,9.745154
2022-08-12T00:32:44.392Z,9.745554
2022-08-12T00:33:52.290Z,9.745855
2022-08-12T00:34:43.949Z,9.745658
2022-08-12T00:35:42.944Z,9.745694
2022-08-12T00:36:42.942Z,9.745668
2022-08-12T00:37:42.957Z,9.745736
2022-08-12T00:38:42.920Z,9.745527
2022-08-12T00:39:42.985Z,9.745655
2022-08-12T00:40:42.908Z,9.745609
2022-08-12T00:41:42.901Z,9.745538
2022-08-12T00:42:43.136Z,9.745419
2022-08-12T00:43:42.878Z,9.745533
2022-08-12T00:44:43.879Z,9.745434
2022-08-12T00:45:42.868Z,9.745557
2022-08-12T00:46:42.854Z,9.745447
2022-08-12T00:47:42.882Z,9.745522
2022-08-12T00:48:42.842Z,9.745614
2022-08-12T00:49:42.845Z,9.745591
2022-08-12T00:50:43.825Z,9.745768
2022-08-12T00:51:42.827Z,9.745560
2022-08-12T00:52:42.837Z,9.745539
2022-08-12T00:53:42.807Z,9.745605
2022-08-12T00:54:42.792Z,9.745530
2022-08-12T00:55:42.792Z,9.745481
2022-08-12T00:56:42.783Z,9.745511
2022-08-12T00:57:42.798Z,9.745515
2022-08-12T00:58:42.765Z,9.745310
2022-08-12T00:59:42.758Z,9.745382
2022-08-12T01:00:42.749Z,9.745307
2022-08-12T01:02:10.609Z,9.745276
2022-08-12T01:02:43.758Z,9.745556
2022-08-12T01:03:42.735Z,9.745247
2022-08-12T01:04:42.720Z,9.745308
2022-08-12T01:05:42.717Z,9.745451
2022-08-12T01:06:42.711Z,9.745361
2022-08-12T01:07:42.719Z,9.745440
2022-08-12T01:08:42.691Z,9.745362
2022-08-12T01:09:42.680Z,9.745383
2022-08-12T01:10:42.670Z,9.745348
2022-08-12T01:11:42.664Z,9.745322
2022-08-12T01:12:42.685Z,9.745399
2022-08-12T01:13:42.646Z,9.745329
2022-08-12T01:14:42.642Z,9.745458
2022-08-12T01:15:42.635Z,9.745473
2022-08-12T01:16:42.621Z,9.745508
2022-08-12T01:17:42.763Z,9.745712
2022-08-12T01:18:42.610Z,9.745645
2022-08-12T01:19:42.603Z,9.745471
2022-08-12T01:20:42.594Z,9.745400
2022-08-12T01:21:42.598Z,9.745509
2022-08-12T01:22:42.617Z,9.745656
2022-08-12T01:23:42.583Z,9.745667
2022-08-12T01:24:42.574Z,9.745479
2022-08-12T01:25:55.633Z,9.745543
2022-08-12T01:26:43.552Z,9.745520
2022-08-12T01:27:42.584Z,9.745378
2022-08-12T01:28:42.539Z,9.745468
2022-08-12T01:29:42.530Z,9.745473
2022-08-12T01:30:42.524Z,9.745269
2022-08-12T01:31:42.520Z,9.745313
2022-08-12T01:32:42.536Z,9.745375
2022-08-12T01:33:42.510Z,9.745371
2022-08-12T01:34:42.497Z,9.745358
2022-08-12T01:35:42.485Z,9.745355
2022-08-12T01:36:42.477Z,9.745418
2022-08-12T01:37:42.471Z,9.745553
2022-08-12T01:38:42.532Z,9.745393
2022-08-12T01:40:34.807Z,9.745361
2022-08-12T01:40:46.857Z,9.745548
2022-08-12T01:41:43.443Z,9.745577
2022-08-12T01:42:43.436Z,9.745558
2022-08-12T01:43:42.458Z,9.745283
2022-08-12T01:44:42.413Z,9.745541
2022-08-12T01:45:43.376Z,9.745961
2022-08-12T01:46:42.406Z,9.745763
2022-08-12T01:47:42.387Z,9.745537
2022-08-12T01:48:42.408Z,9.745558
2022-08-12T01:49:42.378Z,9.745441
2022-08-12T01:50:43.100Z,9.745932
2022-08-12T01:52:15.638Z,9.745599
2022-08-12T01:52:43.346Z,9.745569
2022-08-12T01:53:50.238Z,9.745645
2022-08-12T01:54:43.340Z,9.745354
2022-08-12T01:55:42.337Z,9.745195
2022-08-12T01:56:42.324Z,9.745354
2022-08-12T01:57:59.437Z,9.745435
2022-08-12T01:58:43.330Z,9.745728
2022-08-12T01:59:42.301Z,9.745606
2022-08-12T02:00:43.483Z,9.745530
2022-08-12T02:01:42.359Z,9.745524
2022-08-12T02:02:42.300Z,9.745476
2022-08-12T02:03:42.291Z,9.745208
2022-08-12T02:04:42.261Z,9.745373
2022-08-12T02:05:42.253Z,9.745420
2022-08-12T02:06:42.252Z,9.745438
2022-08-12T02:07:42.232Z,9.745354
2022-08-12T02:08:42.252Z,9.745332
2022-08-12T02:09:42.220Z,9.745290
2022-08-12T02:10:49.913Z,9.745249
2022-08-12T02:11:43.212Z,9.745350
2022-08-12T02:12:42.529Z,9.745062
2022-08-12T02:13:49.677Z,9.745560
2022-08-12T02:14:43.179Z,9.745365
2022-08-12T02:15:42.174Z,9.745503
2022-08-12T02:16:42.167Z,9.745346
2022-08-12T02:17:55.929Z,9.745301
2022-08-12T02:18:43.170Z,9.745273
2022-08-12T02:19:42.141Z,9.745270
2022-08-12T02:20:51.268Z,9.745010
2022-08-12T02:21:43.121Z,9.744690
2022-08-12T02:22:42.284Z,9.745210
2022-08-12T02:23:42.143Z,9.745275
2022-08-12T02:24:42.101Z,9.745244
2022-08-12T02:25:42.091Z,9.745240
2022-08-12T02:26:42.090Z,9.745136
2022-08-12T02:27:42.087Z,9.745185
2022-08-12T02:28:42.100Z,9.744793
2022-08-12T02:29:42.068Z,9.744291
2022-08-12T02:30:42.617Z,9.745320
2022-08-12T02:31:42.051Z,9.745654
2022-08-12T02:32:42.040Z,9.745841
2022-08-12T02:33:42.062Z,9.745798
2022-08-12T02:34:42.025Z,9.745550
2022-08-12T02:35:42.020Z,9.745525
2022-08-12T02:36:42.016Z,9.745595
2022-08-12T02:37:41.999Z,9.745638
2022-08-12T02:38:42.022Z,9.745403
2022-08-12T02:39:42.021Z,9.745152
2022-08-12T02:40:41.983Z,9.745205
2022-08-12T02:41:41.969Z,9.745711
2022-08-12T02:42:41.959Z,9.745109
2022-08-12T02:43:41.985Z,9.745058
2022-08-12T02:44:41.948Z,9.745631
2022-08-12T02:45:41.938Z,9.745098
2022-08-12T02:46:41.937Z,9.745471
2022-08-12T02:47:59.230Z,9.745476
2022-08-12T02:48:42.960Z,9.745266
2022-08-12T02:49:41.910Z,9.744630
2022-08-12T02:50:41.905Z,9.745215
2022-08-12T02:51:41.887Z,9.745140
2022-08-12T02:52:42.020Z,9.745238
2022-08-12T02:53:41.896Z,9.745263
2022-08-12T02:54:41.874Z,9.745313
2022-08-12T02:55:41.864Z,9.745194
2022-08-12T02:56:41.853Z,9.745278
2022-08-12T02:57:42.844Z,9.745398
2022-08-12T02:58:45.432Z,9.745323
2022-08-12T02:59:41.824Z,9.745275
2022-08-12T03:00:41.885Z,9.745540
2022-08-12T03:01:47.753Z,9.745438
2022-08-12T03:02:42.796Z,9.745705
2022-08-12T03:03:42.823Z,9.745577
2022-08-12T03:04:44.053Z,9.745519
2022-08-12T03:05:44.330Z,9.745193
2022-08-12T03:06:41.778Z,9.744911
2022-08-12T03:07:59.509Z,9.744968
2022-08-12T03:08:42.791Z,9.745274
2022-08-12T03:10:03.782Z,9.745485
2022-08-12T03:10:42.739Z,9.745489
2022-08-12T03:11:42.966Z,9.745396
2022-08-12T03:12:49.840Z,9.745745
2022-08-12T03:13:42.737Z,9.745409
2022-08-12T03:14:41.736Z,9.745249
2022-08-12T03:15:41.705Z,9.745173
2022-08-12T03:16:41.697Z,9.745015
2022-08-12T03:17:41.690Z,9.745111
2022-08-12T03:18:44.443Z,9.745364
2022-08-12T03:20:10.433Z,9.745353
2022-08-12T03:20:42.662Z,9.745315
2022-08-12T03:22:05.865Z,9.745390
2022-08-12T03:22:42.807Z,9.745240
2022-08-12T03:23:41.638Z,9.744897
2022-08-12T03:24:41.653Z,9.745185
2022-08-12T03:25:41.622Z,9.745593
2022-08-12T03:26:41.624Z,9.745372
2022-08-12T03:27:41.610Z,9.745438
2022-08-12T03:28:41.602Z,9.745619
2022-08-12T03:29:49.980Z,9.745626
2022-08-12T03:30:42.587Z,9.745485
2022-08-12T03:31:41.583Z,9.745520
2022-08-12T03:32:41.569Z,9.745474
2022-08-12T03:33:42.562Z,9.745540
2022-08-12T03:34:41.580Z,9.745253
2022-08-12T03:35:42.545Z,9.745337
2022-08-12T03:36:41.541Z,9.745687
2022-08-12T03:37:41.527Z,9.745473
2022-08-12T03:38:41.557Z,9.745349
2022-08-12T03:39:41.575Z,9.745256
2022-08-12T03:40:41.507Z,9.745382
2022-08-12T03:41:41.504Z,9.745348
2022-08-12T03:42:41.770Z,9.745122
2022-08-12T03:43:41.507Z,9.745054
2022-08-12T03:44:41.477Z,9.745402
2022-08-12T03:45:51.666Z,9.745510
2022-08-12T03:46:42.469Z,9.745467
2022-08-12T03:47:41.457Z,9.745309
2022-08-12T03:48:41.476Z,9.745296
2022-08-12T03:49:41.433Z,9.745681
2022-08-12T03:50:41.432Z,9.745443
2022-08-12T03:51:41.428Z,9.745388
2022-08-12T03:52:41.622Z,9.745570
2022-08-12T03:53:41.436Z,9.745672
2022-08-12T03:54:42.669Z,9.745380
2022-08-12T03:55:42.391Z,9.745407
2022-08-12T03:56:41.386Z,9.745488
2022-08-12T03:57:41.380Z,9.745389
2022-08-12T03:58:41.371Z,9.745433
2022-08-12T03:59:41.390Z,9.745388
2022-08-12T04:00:41.391Z,9.745291
2022-08-12T04:01:41.388Z,9.745230
2022-08-12T04:02:41.548Z,9.745503
2022-08-12T04:03:41.359Z,9.745518
2022-08-12T04:04:41.324Z,9.745878
2022-08-12T04:05:55.280Z,9.745469
2022-08-12T04:06:42.308Z,9.745403
2022-08-12T04:07:57.744Z,9.745407
2022-08-12T04:08:42.303Z,9.745733
2022-08-12T04:09:42.278Z,9.745118
2022-08-12T04:10:41.272Z,9.744933
2022-08-12T04:11:45.653Z,9.745315
2022-08-12T04:12:42.319Z,9.745553
2022-08-12T04:13:41.279Z,9.745469
2022-08-12T04:14:41.237Z,9.745354
2022-08-12T04:15:41.238Z,9.745251
2022-08-12T04:16:41.219Z,9.744751
2022-08-12T04:18:06.678Z,9.744761
2022-08-12T04:18:42.232Z,9.744911
2022-08-12T04:19:41.208Z,9.745008
2022-08-12T04:20:41.196Z,9.744818
2022-08-12T04:22:01.246Z,9.745048
2022-08-12T04:22:42.179Z,9.744859
2022-08-12T04:23:43.915Z,9.744686
2022-08-12T04:24:42.167Z,9.744965
2022-08-12T04:25:41.157Z,9.744921
2022-08-12T04:26:41.144Z,9.744852
2022-08-12T04:27:41.142Z,9.745208
2022-08-12T04:28:41.165Z,9.744755
2022-08-12T04:30:16.685Z,9.744850
2022-08-12T04:30:42.117Z,9.744951
2022-08-12T04:31:41.118Z,9.744980
2022-08-12T04:32:44.459Z,9.745086
2022-08-12T04:33:42.123Z,9.745227
2022-08-12T04:34:41.081Z,9.745223
2022-08-12T04:35:41.079Z,9.745106
2022-08-12T04:36:41.064Z,9.745261
2022-08-12T04:37:59.295Z,9.745328
2022-08-12T04:38:42.078Z,9.744924
2022-08-12T04:39:41.118Z,9.745341
2022-08-12T04:40:41.024Z,9.745406
2022-08-12T04:41:57.699Z,9.745299
2022-08-12T04:42:42.081Z,9.745263
2022-08-12T04:44:00.772Z,9.745557
2022-08-12T04:44:42.007Z,9.745511
2022-08-12T04:45:40.997Z,9.745493
2022-08-12T04:46:40.996Z,9.745545
2022-08-12T04:47:40.983Z,9.745457
2022-08-12T04:48:41.004Z,9.745404
2022-08-12T04:49:40.985Z,9.745394
2022-08-12T04:50:40.956Z,9.745181
2022-08-12T04:51:40.948Z,9.745412
2022-08-12T04:52:41.057Z,9.745645
2022-08-12T04:53:40.959Z,9.745588
2022-08-12T04:54:40.927Z,9.745577
2022-08-12T04:55:40.921Z,9.745194
2022-08-12T04:56:40.918Z,9.745423
2022-08-12T04:57:40.901Z,9.745474
2022-08-12T04:58:40.895Z,9.745463
2022-08-12T04:59:48.372Z,9.745422
2022-08-12T05:00:41.883Z,9.745364
2022-08-12T05:01:40.871Z,9.745292
2022-08-12T05:02:41.122Z,9.745450
2022-08-12T05:03:46.112Z,9.745165
2022-08-12T05:04:41.869Z,9.745258
2022-08-12T05:05:40.845Z,9.745374
2022-08-12T05:06:40.841Z,9.745590
2022-08-12T05:07:53.679Z,9.745263
2022-08-12T05:08:41.821Z,9.745719
2022-08-12T05:10:02.016Z,9.745535
2022-08-12T05:10:41.810Z,9.744989
2022-08-12T05:11:53.739Z,9.744891
2022-08-12T05:12:42.005Z,9.744628
2022-08-12T05:13:40.784Z,9.745378
2022-08-12T05:14:40.807Z,9.745967
2022-08-12T05:16:02.458Z,9.745611
2022-08-12T05:16:42.760Z,9.745371
2022-08-12T05:17:40.756Z,9.745485
2022-08-12T05:18:40.745Z,9.745076
2022-08-12T05:19:41.764Z,9.744566
2022-08-12T05:20:40.739Z,9.744863
2022-08-12T05:21:40.733Z,9.745043
2022-08-12T05:22:40.888Z,9.745566
2022-08-12T05:23:40.714Z,9.745566
2022-08-12T05:24:40.732Z,9.745957
2022-08-12T05:25:40.702Z,9.745298
2022-08-12T05:26:40.727Z,9.744967
2022-08-12T05:27:40.687Z,9.745267
2022-08-12T05:28:41.678Z,9.744986
2022-08-12T05:30:05.255Z,9.745272
2022-08-12T05:30:41.661Z,9.745352
2022-08-12T05:31:47.638Z,9.745750
2022-08-12T05:32:41.929Z,9.745461
2022-08-12T05:33:40.646Z,9.745542
2022-08-12T05:34:40.661Z,9.745204
2022-08-12T05:35:40.637Z,9.745224
2022-08-12T05:36:40.625Z,9.745167
2022-08-12T05:37:40.612Z,9.745302
2022-08-12T05:38:40.609Z,9.745431
2022-08-12T05:39:40.657Z,9.745939
2022-08-12T05:40:40.597Z,9.746042
2022-08-12T05:41:40.589Z,9.745981
2022-08-12T05:42:40.585Z,9.745748
2022-08-12T05:43:40.580Z,9.745735
2022-08-12T05:44:40.591Z,9.745646
2022-08-12T05:45:44.721Z,9.745744
2022-08-12T05:46:41.560Z,9.745576
2022-08-12T05:47:53.008Z,9.745424
2022-08-12T05:48:41.547Z,9.745312
2022-08-12T05:49:40.562Z,9.745436
2022-08-12T05:50:40.531Z,9.745477
2022-08-12T05:51:41.808Z,9.745344
2022-08-12T05:52:40.644Z,9.745350
2022-08-12T05:53:40.508Z,9.745130
2022-08-12T05:54:56.675Z,9.745301
2022-08-12T05:55:42.497Z,9.745398
2022-08-12T05:56:40.488Z,9.745379
2022-08-12T05:57:40.479Z,9.745256
2022-08-12T05:58:40.476Z,9.745426
2022-08-12T05:59:40.500Z,9.745513
2022-08-12T06:00:40.465Z,9.745404
2022-08-12T06:02:09.645Z,9.745524
2022-08-12T06:02:41.609Z,9.745448
2022-08-12T06:03:40.439Z,9.745478
2022-08-12T06:04:40.458Z,9.745646
2022-08-12T06:05:43.198Z,9.745674
2022-08-12T06:06:41.420Z,9.745503
2022-08-12T06:08:01.906Z,9.745658
2022-08-12T06:08:41.406Z,9.745688
2022-08-12T06:09:40.434Z,9.745726
2022-08-12T06:10:40.398Z,9.745573
2022-08-12T06:11:40.390Z,9.745405
2022-08-12T06:12:41.645Z,9.745445
2022-08-12T06:13:54.061Z,9.745647
2022-08-12T06:14:41.396Z,9.745487
2022-08-12T06:15:40.369Z,9.745552
2022-08-12T06:16:40.360Z,9.745491
2022-08-12T06:17:40.357Z,9.745587
2022-08-12T06:18:40.351Z,9.745460
2022-08-12T06:20:25.895Z,9.745369
2022-08-12T06:20:41.518Z,9.745522
2022-08-12T06:21:40.333Z,9.745538
2022-08-12T06:22:40.411Z,9.745490
2022-08-12T06:23:42.612Z,9.745507
2022-08-12T06:24:41.332Z,9.745392
2022-08-12T06:25:40.314Z,9.745402
2022-08-12T06:26:40.305Z,9.745397
2022-08-12T06:27:40.299Z,9.745171
2022-08-12T06:28:41.287Z,9.745467
2022-08-12T06:30:10.254Z,9.745417
2022-08-12T06:30:41.285Z,9.745356
2022-08-12T06:31:40.268Z,9.745478
2022-08-12T06:32:51.802Z,9.745546
2022-08-12T06:33:59.668Z,9.745511
2022-08-12T06:35:24.388Z,9.745469
2022-08-12T06:35:48.592Z,9.745242
2022-08-12T06:36:41.244Z,9.745438
2022-08-12T06:37:40.256Z,9.745536
2022-08-12T06:38:40.233Z,9.745538
2022-08-12T06:39:40.291Z,9.745323
2022-08-12T06:40:40.215Z,9.744995
2022-08-12T06:41:40.211Z,9.745267
2022-08-12T06:42:41.213Z,9.745180
2022-08-12T06:44:04.585Z,9.744950
2022-08-12T06:44:41.220Z,9.744796
2022-08-12T06:45:45.922Z,9.745459
2022-08-12T06:46:41.181Z,9.745405
2022-08-12T06:47:40.179Z,9.745465
2022-08-12T06:48:40.183Z,9.745550
2022-08-12T06:49:40.194Z,9.745901
2022-08-12T06:50:40.480Z,9.745822
2022-08-12T06:51:41.154Z,9.745510
2022-08-12T06:52:41.337Z,9.745398
2022-08-12T06:53:40.143Z,9.745796
2022-08-12T06:54:40.170Z,9.745347
2022-08-12T06:55:58.293Z,9.745479
2022-08-12T06:57:03.118Z,9.745326
2022-08-12T06:58:06.551Z,9.745401
2022-08-12T06:58:41.117Z,9.745632
2022-08-12T06:59:40.114Z,9.745422
2022-08-12T07:00:40.163Z,9.745138
2022-08-12T07:01:40.106Z,9.745399
2022-08-12T07:02:40.361Z,9.745533
2022-08-12T07:03:40.096Z,9.745441
2022-08-12T07:04:40.213Z,9.745488
2022-08-12T07:05:40.104Z,9.744958
2022-08-12T07:06:40.078Z,9.745165
2022-08-12T07:07:40.071Z,9.745254
2022-08-12T07:08:40.064Z,9.745384
2022-08-12T07:10:04.375Z,9.745524
2022-08-12T07:10:41.073Z,9.745485
2022-08-12T07:11:40.044Z,9.745549
2022-08-12T07:12:40.214Z,9.745489
2022-08-12T07:14:12.410Z,9.745451
2022-08-12T07:14:42.903Z,9.745304
2022-08-12T07:15:41.052Z,9.745286
2022-08-12T07:16:40.017Z,9.745301
2022-08-12T07:17:40.009Z,9.745282
2022-08-12T07:18:40.006Z,9.745258
2022-08-12T07:19:45.019Z,9.745425
2022-08-12T07:20:52.155Z,9.745162
2022-08-12T07:21:55.779Z,9.745233
2022-08-12T07:22:41.100Z,9.745204
2022-08-12T07:23:39.984Z,9.745294
2022-08-12T07:24:39.976Z,9.745392
2022-08-12T07:25:41.582Z,9.745624
2022-08-12T07:26:39.967Z,9.745745
2022-08-12T07:27:39.964Z,9.745367
2022-08-12T07:28:39.959Z,9.745366
2022-08-12T07:30:02.748Z,9.745375
2022-08-12T07:30:40.974Z,9.745464
2022-08-12T07:31:39.943Z,9.745377
2022-08-12T07:32:39.984Z,9.745438
2022-08-12T07:33:39.935Z,9.745491
2022-08-12T07:34:39.928Z,9.745478
2022-08-12T07:35:39.947Z,9.745517
2022-08-12T07:36:39.922Z,9.745497
2022-08-12T07:37:39.910Z,9.745527
2022-08-12T07:38:39.902Z,9.745518
2022-08-12T07:39:51.062Z,9.745497
2022-08-12T07:40:40.917Z,9.745519
2022-08-12T07:41:39.893Z,9.745518
2022-08-12T07:42:40.120Z,9.745485
2022-08-12T07:43:39.877Z,9.745464
2022-08-12T07:44:39.878Z,9.745618
2022-08-12T07:45:39.892Z,9.745576
2022-08-12T07:46:39.860Z,9.745496
2022-08-12T07:47:39.857Z,9.745261
2022-08-12T07:48:39.852Z,9.745408
2022-08-12T07:50:04.962Z,9.745424
2022-08-12T07:50:40.862Z,9.745390
2022-08-12T07:51:39.844Z,9.745463
2022-08-12T07:52:39.976Z,9.745379
2022-08-12T07:53:48.606Z,9.745305
2022-08-12T07:54:40.816Z,9.745323
2022-08-12T07:55:39.837Z,9.745225
2022-08-12T07:56:39.812Z,9.745374
2022-08-12T07:57:39.804Z,9.745456
2022-08-12T07:58:41.980Z,9.745642
2022-08-12T07:59:40.795Z,9.745545
2022-08-12T08:00:39.821Z,9.745327
2022-08-12T08:01:39.840Z,9.745402
2022-08-12T08:02:39.924Z,9.745287
2022-08-12T08:03:47.607Z,9.745193
2022-08-12T08:04:40.762Z,9.745491
2022-08-12T08:05:39.795Z,9.745661
2022-08-12T08:06:39.753Z,9.745432
2022-08-12T08:07:39.746Z,9.745341
2022-08-12T08:08:39.744Z,9.745413
2022-08-12T08:09:39.735Z,9.745408
2022-08-12T08:10:39.731Z,9.745372
2022-08-12T08:11:39.756Z,9.745601
2022-08-12T08:12:39.910Z,9.745753
2022-08-12T08:13:39.713Z,9.745523
2022-08-12T08:14:39.707Z,9.745600
2022-08-12T08:16:01.947Z,9.745619
2022-08-12T08:16:41.719Z,9.745708
2022-08-12T08:17:39.684Z,9.745391
2022-08-12T08:18:39.681Z,9.745504
2022-08-12T08:20:03.104Z,9.745617
2022-08-12T08:20:40.675Z,9.745497
2022-08-12T08:21:39.693Z,9.745411
2022-08-12T08:22:42.090Z,9.745317
2022-08-12T08:23:39.650Z,9.745350
2022-08-12T08:24:39.645Z,9.745387
2022-08-12T08:25:39.642Z,9.745381
2022-08-12T08:26:39.675Z,9.745439
2022-08-12T08:27:39.639Z,9.745444
2022-08-12T08:28:39.625Z,9.745441
2022-08-12T08:29:39.621Z,9.745535
2022-08-12T08:30:39.619Z,9.745605
2022-08-12T08:31:40.616Z,9.745476
2022-08-12T08:32:40.815Z,9.745385
2022-08-12T08:34:04.961Z,9.745402
2022-08-12T08:34:53.656Z,9.745363
2022-08-12T08:35:47.147Z,9.745401
2022-08-12T08:36:40.604Z,9.745411
2022-08-12T08:37:39.575Z,9.745366
2022-08-12T08:38:39.572Z,9.745264
2022-08-12T08:39:39.629Z,9.745183
2022-08-12T08:40:39.555Z,9.745291
2022-08-12T08:42:15.752Z,9.745363
2022-08-12T08:42:40.804Z,9.745254
2022-08-12T08:43:44.533Z,9.745440
2022-08-12T08:44:40.531Z,9.745275
2022-08-12T08:45:39.524Z,9.744818
2022-08-12T08:46:39.562Z,9.745216
2022-08-12T08:47:39.514Z,9.745221
2022-08-12T08:48:39.506Z,9.745010
2022-08-12T08:49:39.510Z,9.745511
2022-08-12T08:50:39.494Z,9.745472
2022-08-12T08:51:39.512Z,9.745008
2022-08-12T08:52:40.986Z,9.745315
2022-08-12T08:53:39.478Z,9.745275
2022-08-12T08:54:39.470Z,9.745352
2022-08-12T08:56:03.697Z,9.745422
2022-08-12T08:56:41.486Z,9.745470
2022-08-12T08:57:43.622Z,9.745156
2022-08-12T08:58:39.453Z,9.745132
2022-08-12T08:59:39.437Z,9.745389
2022-08-12T09:00:39.429Z,9.745413
2022-08-12T09:01:39.507Z,9.745301
2022-08-12T09:02:39.538Z,9.745447
2022-08-12T09:05:08.205Z,9.745161
2022-08-12T09:05:13.456Z,9.745360
2022-08-12T09:05:43.177Z,9.745482
2022-08-12T09:06:41.971Z,9.745634
2022-08-12T09:07:51.683Z,9.745534
2022-08-12T09:08:40.378Z,9.745710
2022-08-12T09:10:02.863Z,9.745251
2022-08-12T09:10:45.165Z,9.745480
2022-08-12T09:12:11.587Z,9.745638
2022-08-12T09:12:42.425Z,9.745458
2022-08-12T09:14:11.333Z,9.745516
2022-08-12T09:14:40.330Z,9.745508
2022-08-12T09:15:41.546Z,9.745324
2022-08-12T09:16:42.854Z,9.745402
2022-08-12T09:18:41.161Z,9.745345
2022-08-12T09:19:39.306Z,9.745266
2022-08-12T09:20:39.300Z,9.745543
2022-08-12T09:21:54.536Z,9.745349
2022-08-12T09:22:40.279Z,9.745411
2022-08-12T09:24:00.751Z,9.745461
2022-08-12T09:24:40.299Z,9.745301
2022-08-12T09:25:39.261Z,9.745380
2022-08-12T09:26:46.204Z,9.745477
2022-08-12T09:28:03.521Z,9.745577
2022-08-12T09:28:40.244Z,9.745584
2022-08-12T09:30:11.999Z,9.745470
2022-08-12T09:30:41.785Z,9.745578
2022-08-12T09:32:07.652Z,9.745568
2022-08-12T09:33:01.539Z,9.745715
2022-08-12T09:34:27.409Z,9.745755
2022-08-12T09:34:42.198Z,9.745681
2022-08-12T09:35:43.246Z,9.745653
2022-08-12T09:36:57.761Z,9.745462
2022-08-12T09:37:57.936Z,9.745589
2022-08-12T09:38:40.166Z,9.745703
2022-08-12T09:40:05.845Z,9.745812
2022-08-12T09:41:01.590Z,9.745977
2022-08-12T09:42:33.734Z,9.745796
2022-08-12T09:42:49.226Z,9.745686
2022-08-12T09:43:41.137Z,9.745804
2022-08-12T09:44:40.214Z,9.745784
2022-08-12T09:46:07.014Z,9.745776
2022-08-12T09:46:40.181Z,9.745685
2022-08-12T09:47:39.126Z,9.745777
2022-08-12T09:48:39.928Z,9.745781
2022-08-12T09:49:42.621Z,9.745657
2022-08-12T09:50:40.114Z,9.745647
2022-08-12T09:51:43.812Z,9.745735
2022-08-12T09:52:39.098Z,9.745723
2022-08-12T09:53:39.671Z,9.745673
2022-08-12T09:54:42.765Z,9.745579
2022-08-12T09:56:05.294Z,9.745608
2022-08-12T09:56:59.404Z,9.745524
2022-08-12T09:58:51.090Z,9.745685
2022-08-12T09:58:57.694Z,9.745617
2022-08-12T10:00:17.553Z,9.745608
2022-08-12T10:00:52.184Z,9.745621
2022-08-12T10:02:41.856Z,9.745841
2022-08-12T10:02:53.159Z,9.745737
2022-08-12T10:04:03.507Z,9.745549
2022-08-12T10:04:40.348Z,9.745634
2022-08-12T10:06:26.957Z,9.745605
2022-08-12T10:06:54.636Z,9.745673
2022-08-12T10:07:40.924Z,9.745550
2022-08-12T10:08:38.950Z,9.745644
2022-08-12T10:09:58.011Z,9.745748
2022-08-12T10:10:42.520Z,9.745693
2022-08-12T10:12:07.729Z,9.745601
2022-08-12T10:12:39.947Z,9.745647
2022-08-12T10:13:39.810Z,9.745448
2022-08-12T10:14:39.072Z,9.745598
2022-08-12T10:16:00.925Z,9.745556
2022-08-12T10:16:39.888Z,9.745581
2022-08-12T10:18:05.948Z,9.745445
2022-08-12T10:18:52.010Z,9.745420
2022-08-12T10:19:39.869Z,9.745703
2022-08-12T10:20:38.862Z,9.745594
2022-08-12T10:21:38.858Z,9.745508
2022-08-12T10:22:41.092Z,9.745676
2022-08-12T10:23:40.169Z,9.745346
2022-08-12T10:24:39.831Z,9.745546
2022-08-12T10:26:35.862Z,9.745573
2022-08-12T10:26:39.809Z,9.745628
2022-08-12T10:28:05.789Z,9.745518
2022-08-12T10:28:39.870Z,9.745631
2022-08-12T10:30:03.333Z,9.745582
2022-08-12T10:30:44.226Z,9.745646
2022-08-12T10:31:58.620Z,9.745839
2022-08-12T10:33:02.438Z,9.745646
2022-08-12T10:33:55.161Z,9.745703
2022-08-12T10:34:39.764Z,9.745682
2022-08-12T10:35:39.747Z,9.745667
2022-08-12T10:36:40.278Z,9.745657
2022-08-12T10:38:36.642Z,9.745602
2022-08-12T10:38:41.423Z,9.745690
2022-08-12T10:40:02.233Z,9.745576
2022-08-12T10:40:39.767Z,9.745302
2022-08-12T10:41:57.811Z,9.744971
2022-08-12T10:42:39.765Z,9.745296
2022-08-12T10:43:56.450Z,9.745591
2022-08-12T10:44:39.696Z,9.745671
2022-08-12T10:45:38.804Z,9.745706
2022-08-12T10:46:38.675Z,9.745628
2022-08-12T10:48:20.456Z,9.745612
2022-08-12T10:48:39.679Z,9.745563
2022-08-12T10:50:02.381Z,9.745052
2022-08-12T10:50:58.410Z,9.745537
2022-08-12T10:52:03.940Z,9.745739
2022-08-12T10:52:39.626Z,9.745528
2022-08-12T10:53:44.344Z,9.745598
2022-08-12T10:54:39.610Z,9.745601
2022-08-12T10:55:38.608Z,9.745687
2022-08-12T10:56:38.602Z,9.745684
2022-08-12T10:58:14.232Z,9.745732
2022-08-12T10:58:39.606Z,9.745602
2022-08-12T11:00:31.757Z,9.745828
2022-08-12T11:00:45.541Z,9.745923
2022-08-12T11:04:18.084Z,9.746061
2022-08-12T11:04:23.068Z,9.745649
2022-08-12T11:04:26.952Z,9.745724
2022-08-12T11:04:44.832Z,9.745764
2022-08-12T11:07:07.901Z,9.744784
2022-08-12T11:07:07.994Z,9.745478
2022-08-12T11:08:35.053Z,9.744745
2022-08-12T11:08:43.669Z,9.745255
2022-08-12T11:09:55.758Z,9.745137
2022-08-12T11:10:39.536Z,9.745449
2022-08-12T11:12:35.874Z,9.745166
2022-08-12T11:12:59.331Z,9.745312
2022-08-12T11:13:46.524Z,9.744937
2022-08-12T11:14:50.034Z,9.744954
2022-08-12T11:16:03.238Z,9.744970
2022-08-12T11:16:39.457Z,9.744891
2022-08-12T11:17:54.479Z,9.745246
2022-08-12T11:18:39.459Z,9.745141
2022-08-12T11:19:38.423Z,9.745266
2022-08-12T11:20:38.414Z,9.745023
2022-08-12T11:21:56.917Z,9.745117
2022-08-12T11:22:39.475Z,9.745416
2022-08-12T11:23:38.390Z,9.745704
2022-08-12T11:24:38.417Z,9.745625
2022-08-12T11:25:56.447Z,9.745199
2022-08-12T11:26:39.374Z,9.745386
2022-08-12T11:27:38.370Z,9.745247
2022-08-12T11:28:38.858Z,9.745177
2022-08-12T11:30:02.086Z,9.745758
2022-08-12T11:30:39.337Z,9.745731
2022-08-12T11:31:55.895Z,9.745035
2022-08-12T11:32:39.595Z,9.745272
2022-08-12T11:34:06.275Z,9.745483
2022-08-12T11:34:52.704Z,9.745339
2022-08-12T11:35:39.298Z,9.745148
2022-08-12T11:36:39.303Z,9.745233
2022-08-12T11:37:57.878Z,9.745198
2022-08-12T11:38:39.267Z,9.744893
2022-08-12T11:40:02.866Z,9.745064
2022-08-12T11:40:42.492Z,9.745008
2022-08-12T11:41:38.230Z,9.744888
2022-08-12T11:42:45.913Z,9.745074
2022-08-12T11:43:50.754Z,9.745420
2022-08-12T11:44:42.968Z,9.745377
2022-08-12T11:45:38.840Z,9.745372